sensor_id;sensor_type;location;lat;lon;timestamp;pressure;altitude;pressure_sealevel;temperature;humidity
73952;BME280;62304;47.662;18.324;2024-03-23T00:54:23;99909.28;;;8.55;83.77
73952;BME280;62304;47.662;18.324;2024-03-23T00:57:25;99905.41;;;8.59;83.60
73952;BME280;62304;47.662;18.324;2024-03-23T01:00:27;99899.16;;;8.62;83.64
73952;BME280;62304;47.662;18.324;2024-03-23T01:03:29;99888.06;;;9.07;82.65
73952;BME280;62304;47.662;18.324;2024-03-23T01:06:31;99882.59;;;9.11;82.09
73952;BME280;62304;47.662;18.324;2024-03-23T01:09:33;99883.06;;;9.42;80.87
73952;BME280;62304;47.662;18.324;2024-03-23T01:12:35;99877.41;;;9.61;79.68
73952;BME280;62304;47.662;18.324;2024-03-23T01:15:37;99887.03;;;9.45;80.48
73952;BME280;62304;47.662;18.324;2024-03-23T01:18:39;99878.28;;;9.39;80.75
73952;BME280;62304;47.662;18.324;2024-03-23T01:21:41;99879.66;;;9.52;79.95
73952;BME280;62304;47.662;18.324;2024-03-23T01:24:45;99872.03;;;9.75;79.19
73952;BME280;62304;47.662;18.324;2024-03-23T01:27:47;99864.00;;;9.96;77.65
73952;BME280;62304;47.662;18.324;2024-03-23T01:30:49;99865.03;;;10.14;76.98
73952;BME280;62304;47.662;18.324;2024-03-23T01:33:52;99865.44;;;10.13;76.88
73952;BME280;62304;47.662;18.324;2024-03-23T01:36:54;99853.34;;;10.31;75.48
73952;BME280;62304;47.662;18.324;2024-03-23T01:39:55;99856.87;;;10.28;75.67
73952;BME280;62304;47.662;18.324;2024-03-23T01:42:59;99852.59;;;10.34;75.12
73952;BME280;62304;47.662;18.324;2024-03-23T01:46:04;99842.25;;;10.31;75.09
73952;BME280;62304;47.662;18.324;2024-03-23T01:49:07;99847.78;;;10.31;75.63
73952;BME280;62304;47.662;18.324;2024-03-23T01:52:09;99841.47;;;10.31;75.57
73952;BME280;62304;47.662;18.324;2024-03-23T01:55:12;99841.44;;;10.27;75.53
73952;BME280;62304;47.662;18.324;2024-03-23T01:58:13;99827.88;;;10.19;75.57
73952;BME280;62304;47.662;18.324;2024-03-23T02:01:16;99833.44;;;10.19;75.67
73952;BME280;62304;47.662;18.324;2024-03-23T02:04:18;99826.22;;;10.14;75.90
73952;BME280;62304;47.662;18.324;2024-03-23T02:07:20;99825.56;;;10.24;75.60
73952;BME280;62304;47.662;18.324;2024-03-23T02:10:22;99820.41;;;10.26;75.57
73952;BME280;62304;47.662;18.324;2024-03-23T02:13:24;99800.88;;;10.12;75.43
73952;BME280;62304;47.662;18.324;2024-03-23T02:16:26;99807.38;;;10.27;75.51
73952;BME280;62304;47.662;18.324;2024-03-23T02:19:28;99807.38;;;10.27;75.74
73952;BME280;62304;47.662;18.324;2024-03-23T02:22:38;99804.63;;;10.30;75.67
73952;BME280;62304;47.662;18.324;2024-03-23T02:25:40;99796.03;;;10.42;75.27
73952;BME280;62304;47.662;18.324;2024-03-23T02:28:42;99778.13;;;10.33;75.15
73952;BME280;62304;47.662;18.324;2024-03-23T02:31:44;99797.72;;;10.54;74.94
73952;BME280;62304;47.662;18.324;2024-03-23T02:34:46;99787.59;;;10.75;74.10
73952;BME280;62304;47.662;18.324;2024-03-23T02:37:48;99785.72;;;10.90;73.41
73952;BME280;62304;47.662;18.324;2024-03-23T02:40:50;99783.78;;;10.94;73.24
73952;BME280;62304;47.662;18.324;2024-03-23T02:43:52;99784.97;;;10.96;73.14
73952;BME280;62304;47.662;18.324;2024-03-23T02:46:54;99776.75;;;11.07;72.89
73952;BME280;62304;47.662;18.324;2024-03-23T02:49:56;99777.56;;;11.14;72.54
73952;BME280;62304;47.662;18.324;2024-03-23T02:52:58;99771.69;;;11.26;72.27
73952;BME280;62304;47.662;18.324;2024-03-23T02:56:00;99776.09;;;11.34;72.07
73952;BME280;62304;47.662;18.324;2024-03-23T02:59:02;99769.72;;;11.34;72.13
73952;BME280;62304;47.662;18.324;2024-03-23T03:02:04;99769.31;;;11.28;72.50
73952;BME280;62304;47.662;18.324;2024-03-23T03:05:07;99764.53;;;11.25;72.32
73952;BME280;62304;47.662;18.324;2024-03-23T03:08:10;99759.31;;;11.13;73.00
73952;BME280;62304;47.662;18.324;2024-03-23T03:11:12;99754.97;;;11.16;72.98
73952;BME280;62304;47.662;18.324;2024-03-23T03:14:14;99750.22;;;11.16;72.79
73952;BME280;62304;47.662;18.324;2024-03-23T03:17:16;99760.53;;;11.19;72.67
73952;BME280;62304;47.662;18.324;2024-03-23T03:20:18;99749.41;;;11.16;72.33
73952;BME280;62304;47.662;18.324;2024-03-23T03:23:20;99746.66;;;11.23;72.35
73952;BME280;62304;47.662;18.324;2024-03-23T03:26:22;99735.56;;;11.19;72.24
73952;BME280;62304;47.662;18.324;2024-03-23T03:29:24;99733.69;;;11.41;70.94
73952;BME280;62304;47.662;18.324;2024-03-23T03:32:28;99738.84;;;11.42;70.89
73952;BME280;62304;47.662;18.324;2024-03-23T03:35:30;99729.72;;;11.38;70.93
73952;BME280;62304;47.662;18.324;2024-03-23T03:38:32;99722.94;;;11.32;71.30
73952;BME280;62304;47.662;18.324;2024-03-23T03:41:34;99720.91;;;11.19;71.90
73952;BME280;62304;47.662;18.324;2024-03-23T03:44:35;99727.22;;;11.19;72.11
73952;BME280;62304;47.662;18.324;2024-03-23T03:47:38;99720.47;;;11.13;72.32
73952;BME280;62304;47.662;18.324;2024-03-23T03:50:40;99718.03;;;11.01;72.84
73952;BME280;62304;47.662;18.324;2024-03-23T03:53:42;99719.59;;;10.99;72.81
73952;BME280;62304;47.662;18.324;2024-03-23T03:56:44;99713.22;;;10.95;73.10
73952;BME280;62304;47.662;18.324;2024-03-23T03:59:46;99716.78;;;10.92;73.59
73952;BME280;62304;47.662;18.324;2024-03-23T04:02:48;99710.44;;;10.91;73.78
73952;BME280;62304;47.662;18.324;2024-03-23T04:05:52;99710.44;;;10.91;73.63
73952;BME280;62304;47.662;18.324;2024-03-23T04:08:54;99709.22;;;10.92;73.67
73952;BME280;62304;47.662;18.324;2024-03-23T04:11:56;99712.06;;;10.99;73.22
73952;BME280;62304;47.662;18.324;2024-03-23T04:14:58;99708.94;;;11.04;73.04
73952;BME280;62304;47.662;18.324;2024-03-23T04:18:00;99714.88;;;11.06;72.91
73952;BME280;62304;47.662;18.324;2024-03-23T04:21:02;99706.16;;;11.04;73.04
73952;BME280;62304;47.662;18.324;2024-03-23T04:24:04;99709.75;;;11.12;72.93
73952;BME280;62304;47.662;18.324;2024-03-23T04:27:06;99707.78;;;11.19;72.71
73952;BME280;62304;47.662;18.324;2024-03-23T04:30:09;99713.34;;;11.16;72.90
73952;BME280;62304;47.662;18.324;2024-03-23T04:33:12;99701.00;;;11.10;73.49
73952;BME280;62304;47.662;18.324;2024-03-23T04:36:14;99693.50;;;11.10;73.43
73952;BME280;62304;47.662;18.324;2024-03-23T04:39:15;99697.50;;;11.16;73.22
73952;BME280;62304;47.662;18.324;2024-03-23T04:42:18;99695.19;;;11.32;72.44
73952;BME280;62304;47.662;18.324;2024-03-23T04:45:19;99697.22;;;11.42;72.13
73952;BME280;62304;47.662;18.324;2024-03-23T04:48:23;99684.94;;;11.54;71.62
73952;BME280;62304;47.662;18.324;2024-03-23T04:51:25;99687.78;;;11.68;71.09
73952;BME280;62304;47.662;18.324;2024-03-23T04:54:28;99684.62;;;11.76;70.67
73952;BME280;62304;47.662;18.324;2024-03-23T04:57:30;99686.22;;;11.81;70.36
73952;BME280;62304;47.662;18.324;2024-03-23T05:00:32;99677.12;;;11.84;70.06
73952;BME280;62304;47.662;18.324;2024-03-23T05:03:34;99662.41;;;11.76;69.78
73952;BME280;62304;47.662;18.324;2024-03-23T05:06:36;99675.53;;;12.00;69.28
73952;BME280;62304;47.662;18.324;2024-03-23T05:09:38;99668.78;;;11.98;69.45
73952;BME280;62304;47.662;18.324;2024-03-23T05:12:41;99658.47;;;11.98;69.34
73952;BME280;62304;47.662;18.324;2024-03-23T05:15:42;99656.88;;;11.97;69.42
73952;BME280;62304;47.662;18.324;2024-03-23T05:18:45;99655.28;;;12.00;69.15
73952;BME280;62304;47.662;18.324;2024-03-23T05:21:46;99660.84;;;12.03;69.05
73952;BME280;62304;47.662;18.324;2024-03-23T05:24:49;99664.81;;;12.09;68.68
73952;BME280;62304;47.662;18.324;2024-03-23T05:27:50;99668.00;;;12.11;68.75
73952;BME280;62304;47.662;18.324;2024-03-23T05:30:53;99669.19;;;12.17;68.23
73952;BME280;62304;47.662;18.324;2024-03-23T05:33:55;99642.19;;;12.04;67.73
73952;BME280;62304;47.662;18.324;2024-03-23T05:36:58;99656.09;;;12.14;67.71
73952;BME280;62304;47.662;18.324;2024-03-23T05:40:00;99642.56;;;12.02;68.10
73952;BME280;62304;47.662;18.324;2024-03-23T05:43:03;99646.56;;;12.08;68.28
73952;BME280;62304;47.662;18.324;2024-03-23T05:46:05;99649.72;;;12.14;67.96
73952;BME280;62304;47.662;18.324;2024-03-23T05:49:08;99658.06;;;12.17;67.91
73952;BME280;62304;47.662;18.324;2024-03-23T05:52:10;99654.09;;;12.18;67.83
73952;BME280;62304;47.662;18.324;2024-03-23T05:55:13;99642.19;;;12.18;67.79
73952;BME280;62304;47.662;18.324;2024-03-23T05:58:15;99644.16;;;12.21;67.77
73952;BME280;62304;47.662;18.324;2024-03-23T06:01:18;99637.81;;;12.24;67.76
73952;BME280;62304;47.662;18.324;2024-03-23T06:04:20;99633.44;;;12.26;67.66
73952;BME280;62304;47.662;18.324;2024-03-23T06:07:25;99639.00;;;12.33;67.54
73952;BME280;62304;47.662;18.324;2024-03-23T06:10:27;99638.59;;;12.42;67.47
73952;BME280;62304;47.662;18.324;2024-03-23T06:13:29;99630.63;;;12.51;67.20
73952;BME280;62304;47.662;18.324;2024-03-23T06:16:32;99641.75;;;12.58;66.80
73952;BME280;62304;47.662;18.324;2024-03-23T06:19:34;99625.03;;;12.65;66.74
73952;BME280;62304;47.662;18.324;2024-03-23T06:22:36;99623.84;;;12.69;66.78
73952;BME280;62304;47.662;18.324;2024-03-23T06:25:38;99622.59;;;12.84;66.36
73952;BME280;62304;47.662;18.324;2024-03-23T06:28:40;99620.97;;;12.94;66.00
73952;BME280;62304;47.662;18.324;2024-03-23T06:31:42;99620.56;;;12.95;65.84
73952;BME280;62304;47.662;18.324;2024-03-23T06:34:44;99616.59;;;13.03;65.80
73952;BME280;62304;47.662;18.324;2024-03-23T06:37:47;99622.50;;;13.12;64.92
73952;BME280;62304;47.662;18.324;2024-03-23T06:40:49;99616.50;;;13.21;64.53
73952;BME280;62304;47.662;18.324;2024-03-23T06:43:52;99612.91;;;13.27;64.43
73952;BME280;62304;47.662;18.324;2024-03-23T06:46:54;99603.25;;;13.42;64.32
73952;BME280;62304;47.662;18.324;2024-03-23T06:49:55;99599.91;;;13.65;63.35
73952;BME280;62304;47.662;18.324;2024-03-23T06:52:57;99601.50;;;14.20;61.38
73952;BME280;62304;47.662;18.324;2024-03-23T06:55:59;99603.94;;;14.59;60.22
73952;BME280;62304;47.662;18.324;2024-03-23T06:59:02;99599.66;;;14.84;60.06
73952;BME280;62304;47.662;18.324;2024-03-23T07:02:05;99593.72;;;14.79;59.76
73952;BME280;62304;47.662;18.324;2024-03-23T07:05:10;99600.84;;;14.83;59.04
73952;BME280;62304;47.662;18.324;2024-03-23T07:08:13;99593.47;;;15.00;58.64
73952;BME280;62304;47.662;18.324;2024-03-23T07:11:24;99599.38;;;15.05;58.17
73952;BME280;62304;47.662;18.324;2024-03-23T07:14:25;99578.25;;;15.87;55.34
73952;BME280;62304;47.662;18.324;2024-03-23T07:17:28;99578.78;;;16.28;54.30
73952;BME280;62304;47.662;18.324;2024-03-23T07:20:30;99571.00;;;16.16;53.96
73952;BME280;62304;47.662;18.324;2024-03-23T07:23:33;99567.41;;;15.93;54.47
73952;BME280;62304;47.662;18.324;2024-03-23T07:26:35;99579.63;;;16.02;54.04
73952;BME280;62304;47.662;18.324;2024-03-23T07:29:37;99572.94;;;16.85;53.01
73952;BME280;62304;47.662;18.324;2024-03-23T07:32:39;99566.19;;;16.82;51.75
73952;BME280;62304;47.662;18.324;2024-03-23T07:35:41;99572.88;;;16.88;51.09
73952;BME280;62304;47.662;18.324;2024-03-23T07:38:43;99576.31;;;17.15;51.16
73952;BME280;62304;47.662;18.324;2024-03-23T07:41:49;99557.34;;;17.90;49.12
73952;BME280;62304;47.662;18.324;2024-03-23T07:44:51;99553.47;;;18.77;46.51
73952;BME280;62304;47.662;18.324;2024-03-23T07:47:53;99547.69;;;18.07;47.81
73952;BME280;62304;47.662;18.324;2024-03-23T07:51:06;99558.81;;;17.47;48.81
73952;BME280;62304;47.662;18.324;2024-03-23T07:54:08;99555.00;;;17.37;49.67
73952;BME280;62304;47.662;18.324;2024-03-23T07:57:10;99555.06;;;17.53;49.66
73952;BME280;62304;47.662;18.324;2024-03-23T08:00:13;99549.44;;;18.01;48.50
73952;BME280;62304;47.662;18.324;2024-03-23T08:03:16;99552.63;;;17.87;48.71
73952;BME280;62304;47.662;18.324;2024-03-23T08:06:19;99550.87;;;17.93;48.88
73952;BME280;62304;47.662;18.324;2024-03-23T08:09:25;99548.06;;;18.09;48.38
73952;BME280;62304;47.662;18.324;2024-03-23T08:12:27;99553.81;;;18.18;48.37
73952;BME280;62304;47.662;18.324;2024-03-23T08:15:32;99547.62;;;17.95;47.83
73952;BME280;62304;47.662;18.324;2024-03-23T08:18:37;99548.84;;;17.78;49.09
73952;BME280;62304;47.662;18.324;2024-03-23T08:21:39;99545.38;;;18.50;47.07
73952;BME280;62304;47.662;18.324;2024-03-23T08:24:41;99540.69;;;18.15;47.91
73952;BME280;62304;47.662;18.324;2024-03-23T08:27:44;99541.75;;;18.05;48.42
73952;BME280;62304;47.662;18.324;2024-03-23T08:30:46;99539.75;;;17.90;48.66
73952;BME280;62304;47.662;18.324;2024-03-23T08:33:48;99538.38;;;18.71;47.55
73952;BME280;62304;47.662;18.324;2024-03-23T08:36:50;99535.63;;;18.83;46.90
73952;BME280;62304;47.662;18.324;2024-03-23T08:39:53;99527.44;;;18.60;47.71
73952;BME280;62304;47.662;18.324;2024-03-23T08:42:55;99520.66;;;19.89;45.44
73952;BME280;62304;47.662;18.324;2024-03-23T08:46:07;99512.78;;;20.43;43.34
73952;BME280;62304;47.662;18.324;2024-03-23T08:49:09;99506.03;;;20.07;42.57
73952;BME280;62304;47.662;18.324;2024-03-23T08:52:11;99513.47;;;19.88;43.15
73952;BME280;62304;47.662;18.324;2024-03-23T08:55:13;99505.09;;;20.10;42.06
73952;BME280;62304;47.662;18.324;2024-03-23T08:58:15;99504.41;;;20.18;42.67
73952;BME280;62304;47.662;18.324;2024-03-23T09:01:19;99499.47;;;20.10;43.04
73952;BME280;62304;47.662;18.324;2024-03-23T09:04:22;99495.88;;;19.97;42.71
73952;BME280;62304;47.662;18.324;2024-03-23T09:07:24;99496.03;;;19.81;43.54
73952;BME280;62304;47.662;18.324;2024-03-23T09:10:26;99487.75;;;20.12;43.12
73952;BME280;62304;47.662;18.324;2024-03-23T09:13:28;99473.69;;;20.12;43.20
73952;BME280;62304;47.662;18.324;2024-03-23T09:16:30;99477.50;;;20.39;43.10
73952;BME280;62304;47.662;18.324;2024-03-23T09:19:32;99474.06;;;20.35;42.00
73952;BME280;62304;47.662;18.324;2024-03-23T09:22:34;99471.44;;;20.07;42.16
73952;BME280;62304;47.662;18.324;2024-03-23T09:25:39;99462.44;;;19.99;41.64
73952;BME280;62304;47.662;18.324;2024-03-23T09:28:44;99460.59;;;20.17;41.67
73952;BME280;62304;47.662;18.324;2024-03-23T09:31:46;99462.78;;;20.01;41.54
73952;BME280;62304;47.662;18.324;2024-03-23T09:34:48;99449.41;;;19.92;42.10
73952;BME280;62304;47.662;18.324;2024-03-23T09:37:50;99450.16;;;19.93;41.97
73952;BME280;62304;47.662;18.324;2024-03-23T09:40:53;99437.25;;;19.83;41.99
73952;BME280;62304;47.662;18.324;2024-03-23T09:43:55;99444.50;;;20.05;42.40
73952;BME280;62304;47.662;18.324;2024-03-23T09:46:57;99450.38;;;20.11;42.25
73952;BME280;62304;47.662;18.324;2024-03-23T09:50:00;99438.69;;;20.34;42.00
73952;BME280;62304;47.662;18.324;2024-03-23T09:53:02;99442.63;;;20.37;41.68
73952;BME280;62304;47.662;18.324;2024-03-23T09:56:05;99436.63;;;20.00;43.10
73952;BME280;62304;47.662;18.324;2024-03-23T09:59:07;99437.59;;;19.85;43.64
73952;BME280;62304;47.662;18.324;2024-03-23T10:02:09;99426.81;;;19.71;44.47
73952;BME280;62304;47.662;18.324;2024-03-23T10:05:20;99424.66;;;19.87;44.13
73952;BME280;62304;47.662;18.324;2024-03-23T10:08:24;99423.94;;;19.96;44.23
73952;BME280;62304;47.662;18.324;2024-03-23T10:11:27;99418.31;;;19.96;44.19
73952;BME280;62304;47.662;18.324;2024-03-23T10:14:30;99408.78;;;19.81;44.07
73952;BME280;62304;47.662;18.324;2024-03-23T10:17:33;99406.63;;;19.85;44.12
73952;BME280;62304;47.662;18.324;2024-03-23T10:20:35;99395.34;;;19.51;43.69
73952;BME280;62304;47.662;18.324;2024-03-23T10:23:38;99392.38;;;19.67;44.27
73952;BME280;62304;47.662;18.324;2024-03-23T10:26:40;99392.03;;;19.77;43.59
73952;BME280;62304;47.662;18.324;2024-03-23T10:29:44;99383.75;;;19.49;43.64
73952;BME280;62304;47.662;18.324;2024-03-23T10:32:46;99386.44;;;19.65;43.91
73952;BME280;62304;47.662;18.324;2024-03-23T10:35:51;99386.97;;;19.73;43.15
73952;BME280;62304;47.662;18.324;2024-03-23T10:38:54;99380.12;;;19.95;43.32
73952;BME280;62304;47.662;18.324;2024-03-23T10:41:57;99370.78;;;19.98;43.69
73952;BME280;62304;47.662;18.324;2024-03-23T10:45:00;99369.22;;;19.97;43.46
73952;BME280;62304;47.662;18.324;2024-03-23T10:48:02;99351.88;;;19.98;44.13
73952;BME280;62304;47.662;18.324;2024-03-23T10:51:07;99331.78;;;19.87;43.65
73952;BME280;62304;47.662;18.324;2024-03-23T10:54:10;99341.72;;;19.67;44.11
73952;BME280;62304;47.662;18.324;2024-03-23T10:57:17;99334.75;;;19.72;45.28
73952;BME280;62304;47.662;18.324;2024-03-23T11:00:19;99336.19;;;19.76;44.59
73952;BME280;62304;47.662;18.324;2024-03-23T11:03:36;99318.59;;;19.63;45.20
73952;BME280;62304;47.662;18.324;2024-03-23T11:06:39;99313.84;;;19.60;44.85
73952;BME280;62304;47.662;18.324;2024-03-23T11:09:42;99311.97;;;19.57;44.92
73952;BME280;62304;47.662;18.324;2024-03-23T11:12:47;99294.75;;;19.55;44.47
73952;BME280;62304;47.662;18.324;2024-03-23T11:15:49;99288.25;;;19.46;44.99
73952;BME280;62304;47.662;18.324;2024-03-23T11:18:51;99281.59;;;19.52;44.03
73952;BME280;62304;47.662;18.324;2024-03-23T11:21:54;99283.75;;;19.48;44.35
73952;BME280;62304;47.662;18.324;2024-03-23T11:24:56;99277.09;;;19.55;44.79
73952;BME280;62304;47.662;18.324;2024-03-23T11:28:10;99266.09;;;19.48;44.46
73952;BME280;62304;47.662;18.324;2024-03-23T11:31:14;99268.19;;;19.56;44.98
73952;BME280;62304;47.662;18.324;2024-03-23T11:34:16;99259.88;;;19.52;45.05
73952;BME280;62304;47.662;18.324;2024-03-23T11:37:19;99244.66;;;19.62;44.75
73952;BME280;62304;47.662;18.324;2024-03-23T11:40:21;99246.87;;;19.46;45.44
73952;BME280;62304;47.662;18.324;2024-03-23T11:43:24;99228.00;;;19.34;44.60
73952;BME280;62304;47.662;18.324;2024-03-23T11:46:26;99224.34;;;19.12;44.77
73952;BME280;62304;47.662;18.324;2024-03-23T11:49:29;99223.87;;;19.13;45.18
73952;BME280;62304;47.662;18.324;2024-03-23T11:52:31;99219.06;;;19.14;45.39
73952;BME280;62304;47.662;18.324;2024-03-23T11:55:53;99219.50;;;19.25;45.30
73952;BME280;62304;47.662;18.324;2024-03-23T11:58:55;99207.81;;;19.14;44.95
73952;BME280;62304;47.662;18.324;2024-03-23T12:01:58;99203.09;;;19.11;45.25
73952;BME280;62304;47.662;18.324;2024-03-23T12:05:14;99188.97;;;19.02;45.63
73952;BME280;62304;47.662;18.324;2024-03-23T12:08:32;99185.69;;;19.03;45.60
73952;BME280;62304;47.662;18.324;2024-03-23T12:11:34;99179.28;;;19.03;45.90
73952;BME280;62304;47.662;18.324;2024-03-23T12:14:37;99178.94;;;19.01;45.75
73952;BME280;62304;47.662;18.324;2024-03-23T12:17:40;99169.09;;;18.97;45.54
73952;BME280;62304;47.662;18.324;2024-03-23T12:20:41;99159.53;;;18.94;45.33
73952;BME280;62304;47.662;18.324;2024-03-23T12:23:44;99151.56;;;18.92;45.29
73952;BME280;62304;47.662;18.324;2024-03-23T12:26:47;99140.31;;;18.92;44.69
73952;BME280;62304;47.662;18.324;2024-03-23T12:29:52;99137.97;;;18.91;44.86
73952;BME280;62304;47.662;18.324;2024-03-23T12:32:54;99148.28;;;18.94;45.00
73952;BME280;62304;47.662;18.324;2024-03-23T12:35:56;99143.34;;;18.98;44.78
73952;BME280;62304;47.662;18.324;2024-03-23T12:38:58;99140.09;;;19.00;44.40
73952;BME280;62304;47.662;18.324;2024-03-23T12:42:01;99132.28;;;19.03;44.57
73952;BME280;62304;47.662;18.324;2024-03-23T12:45:07;99134.66;;;19.05;44.96
73952;BME280;62304;47.662;18.324;2024-03-23T12:48:09;99121.84;;;19.04;44.75
73952;BME280;62304;47.662;18.324;2024-03-23T12:51:11;99120.81;;;19.11;44.93
73952;BME280;62304;47.662;18.324;2024-03-23T12:54:13;99105.78;;;19.05;45.15
73952;BME280;62304;47.662;18.324;2024-03-23T12:57:15;99111.97;;;19.00;45.69
73952;BME280;62304;47.662;18.324;2024-03-23T13:00:17;99115.56;;;19.00;45.65
73952;BME280;62304;47.662;18.324;2024-03-23T13:03:19;99104.25;;;18.91;46.09
73952;BME280;62304;47.662;18.324;2024-03-23T13:06:21;99111.75;;;18.94;46.32
73952;BME280;62304;47.662;18.324;2024-03-23T13:09:23;99103.59;;;18.87;46.58
73952;BME280;62304;47.662;18.324;2024-03-23T13:12:25;99105.06;;;18.79;46.57
73952;BME280;62304;47.662;18.324;2024-03-23T13:15:28;99100.50;;;18.73;46.75
73952;BME280;62304;47.662;18.324;2024-03-23T13:18:31;99096.59;;;18.70;46.14
73952;BME280;62304;47.662;18.324;2024-03-23T13:21:33;99087.81;;;18.68;45.82
73952;BME280;62304;47.662;18.324;2024-03-23T13:24:35;99086.25;;;18.67;46.09
73952;BME280;62304;47.662;18.324;2024-03-23T13:27:38;99089.72;;;18.71;46.19
73952;BME280;62304;47.662;18.324;2024-03-23T13:30:40;99085.78;;;18.69;46.34
73952;BME280;62304;47.662;18.324;2024-03-23T13:33:42;99084.69;;;18.66;46.86
73952;BME280;62304;47.662;18.324;2024-03-23T13:36:47;99085.91;;;18.65;46.53
73952;BME280;62304;47.662;18.324;2024-03-23T13:39:49;99083.88;;;18.66;46.23
73952;BME280;62304;47.662;18.324;2024-03-23T13:42:51;99080.31;;;18.65;45.89
73952;BME280;62304;47.662;18.324;2024-03-23T13:45:54;99079.06;;;18.66;45.92
73952;BME280;62304;47.662;18.324;2024-03-23T13:48:57;99046.31;;;18.51;46.06
73952;BME280;62304;47.662;18.324;2024-03-23T13:51:59;99072.06;;;18.71;45.52
73952;BME280;62304;47.662;18.324;2024-03-23T13:55:02;99076.97;;;18.79;44.84
73952;BME280;62304;47.662;18.324;2024-03-23T13:58:04;99070.00;;;18.84;44.84
73952;BME280;62304;47.662;18.324;2024-03-23T14:01:06;99067.38;;;18.89;45.41
73952;BME280;62304;47.662;18.324;2024-03-23T14:04:09;99077.72;;;18.92;45.71
73952;BME280;62304;47.662;18.324;2024-03-23T14:07:11;99056.94;;;18.90;45.39
73952;BME280;62304;47.662;18.324;2024-03-23T14:10:13;99072.16;;;19.01;44.96
73952;BME280;62304;47.662;18.324;2024-03-23T14:13:16;99077.06;;;19.09;45.01
73952;BME280;62304;47.662;18.324;2024-03-23T14:16:18;99073.03;;;19.32;44.02
73952;BME280;62304;47.662;18.324;2024-03-23T14:19:20;99074.06;;;19.47;43.55
73952;BME280;62304;47.662;18.324;2024-03-23T14:22:23;99079.69;;;19.47;43.00
73952;BME280;62304;47.662;18.324;2024-03-23T14:25:25;99081.25;;;19.48;42.78
73952;BME280;62304;47.662;18.324;2024-03-23T14:28:30;99077.13;;;19.40;43.19
73952;BME280;62304;47.662;18.324;2024-03-23T14:31:33;99077.09;;;19.31;43.54
73952;BME280;62304;47.662;18.324;2024-03-23T14:34:35;99076.56;;;19.24;43.87
73952;BME280;62304;47.662;18.324;2024-03-23T14:37:38;99074.78;;;19.17;44.10
73952;BME280;62304;47.662;18.324;2024-03-23T14:40:40;99076.81;;;19.17;44.62
73952;BME280;62304;47.662;18.324;2024-03-23T14:43:42;99065.72;;;19.13;44.41
73952;BME280;62304;47.662;18.324;2024-03-23T14:46:46;99073.78;;;19.11;44.37
73952;BME280;62304;47.662;18.324;2024-03-23T14:49:48;99066.94;;;19.12;44.34
73952;BME280;62304;47.662;18.324;2024-03-23T14:52:52;99064.13;;;19.12;44.29
73952;BME280;62304;47.662;18.324;2024-03-23T14:55:55;99063.31;;;19.24;44.17
73952;BME280;62304;47.662;18.324;2024-03-23T14:58:57;99071.06;;;19.42;44.12
73952;BME280;62304;47.662;18.324;2024-03-23T15:01:59;99073.31;;;19.86;43.05
73952;BME280;62304;47.662;18.324;2024-03-23T15:05:01;99077.50;;;20.21;42.13
73952;BME280;62304;47.662;18.324;2024-03-23T15:08:06;99071.25;;;20.17;41.47
73952;BME280;62304;47.662;18.324;2024-03-23T15:11:08;99075.59;;;20.09;41.85
73952;BME280;62304;47.662;18.324;2024-03-23T15:14:11;99071.47;;;20.32;41.06
73952;BME280;62304;47.662;18.324;2024-03-23T15:17:13;99075.69;;;20.36;40.63
73952;BME280;62304;47.662;18.324;2024-03-23T15:20:15;99083.19;;;20.30;40.46
73952;BME280;62304;47.662;18.324;2024-03-23T15:23:17;99078.47;;;20.18;40.68
73952;BME280;62304;47.662;18.324;2024-03-23T15:26:20;99079.91;;;19.92;41.21
73952;BME280;62304;47.662;18.324;2024-03-23T15:29:22;99075.62;;;19.78;41.69
73952;BME280;62304;47.662;18.324;2024-03-23T15:32:25;99092.59;;;19.66;42.33
73952;BME280;62304;47.662;18.324;2024-03-23T15:35:27;99092.22;;;19.55;42.69
73952;BME280;62304;47.662;18.324;2024-03-23T15:38:31;99093.91;;;19.44;43.34
73952;BME280;62304;47.662;18.324;2024-03-23T15:41:33;99086.34;;;19.19;41.75
73952;BME280;62304;47.662;18.324;2024-03-23T15:44:37;99097.06;;;19.12;41.71
73952;BME280;62304;47.662;18.324;2024-03-23T15:47:40;99103.66;;;18.96;41.52
73952;BME280;62304;47.662;18.324;2024-03-23T15:50:50;99102.47;;;18.85;42.12
73952;BME280;62304;47.662;18.324;2024-03-23T15:53:54;99101.84;;;18.68;42.61
73952;BME280;62304;47.662;18.324;2024-03-23T15:56:59;99109.56;;;18.43;43.05
73952;BME280;62304;47.662;18.324;2024-03-23T16:00:04;99112.50;;;18.39;43.30
73952;BME280;62304;47.662;18.324;2024-03-23T16:03:12;99157.06;;;18.25;43.71
73952;BME280;62304;47.662;18.324;2024-03-23T16:06:15;99214.22;;;17.08;47.91
73952;BME280;62304;47.662;18.324;2024-03-23T16:09:16;99204.62;;;15.74;52.94
73952;BME280;62304;47.662;18.324;2024-03-23T16:12:21;99223.19;;;14.83;56.57
73952;BME280;62304;47.662;18.324;2024-03-23T16:15:23;99250.69;;;14.58;57.64
73952;BME280;62304;47.662;18.324;2024-03-23T16:18:26;99252.88;;;14.20;58.85
73952;BME280;62304;47.662;18.324;2024-03-23T16:21:28;99274.16;;;14.07;58.42
73952;BME280;62304;47.662;18.324;2024-03-23T16:24:30;99281.28;;;13.82;58.14
73952;BME280;62304;47.662;18.324;2024-03-23T16:27:34;99301.41;;;13.63;58.14
73952;BME280;62304;47.662;18.324;2024-03-23T16:30:36;99313.63;;;13.39;59.19
73952;BME280;62304;47.662;18.324;2024-03-23T16:33:38;99308.91;;;13.32;59.61
73952;BME280;62304;47.662;18.324;2024-03-23T16:36:41;99318.22;;;13.15;60.14
73952;BME280;62304;47.662;18.324;2024-03-23T16:39:43;99320.38;;;12.97;61.05
73952;BME280;62304;47.662;18.324;2024-03-23T16:42:46;99337.09;;;12.90;61.64
73952;BME280;62304;47.662;18.324;2024-03-23T16:45:55;99359.03;;;12.81;62.45
73952;BME280;62304;47.662;18.324;2024-03-23T16:48:58;99370.22;;;12.71;63.37